sensor_id;sensor_type;location;lat;lon;timestamp;temperature;humidity
35563;DHT22;21665;40.108;18.302;2022-10-15T00:00:44;15.90;99.90
35563;DHT22;21665;40.108;18.302;2022-10-15T00:03:20;15.90;99.90
35563;DHT22;21665;40.108;18.302;2022-10-15T00:06:14;15.90;99.90
35563;DHT22;21665;40.108;18.302;2022-10-15T00:08:43;15.90;99.90
35563;DHT22;21665;40.108;18.302;2022-10-15T00:11:19;15.90;99.90
35563;DHT22;21665;40.108;18.302;2022-10-15T00:14:24;15.90;99.90
35563;DHT22;21665;40.108;18.302;2022-10-15T00:16:52;15.90;99.90
35563;DHT22;21665;40.108;18.302;2022-10-15T00:19:22;15.90;99.90
35563;DHT22;21665;40.108;18.302;2022-10-15T00:21:49;15.80;99.90
35563;DHT22;21665;40.108;18.302;2022-10-15T00:24:18;15.90;99.90
35563;DHT22;21665;40.108;18.302;2022-10-15T00:26:47;15.80;99.90
35563;DHT22;21665;40.108;18.302;2022-10-15T00:29:14;15.80;99.90
35563;DHT22;21665;40.108;18.302;2022-10-15T00:31:41;15.80;99.90
35563;DHT22;21665;40.108;18.302;2022-10-15T00:34:08;15.80;99.90
35563;DHT22;21665;40.108;18.302;2022-10-15T00:36:45;15.80;99.90
35563;DHT22;21665;40.108;18.302;2022-10-15T00:39:12;15.70;99.90
35563;DHT22;21665;40.108;18.302;2022-10-15T00:41:42;15.80;99.90
35563;DHT22;21665;40.108;18.302;2022-10-15T00:47:17;15.70;99.90
35563;DHT22;21665;40.108;18.302;2022-10-15T00:49:58;15.70;99.90
35563;DHT22;21665;40.108;18.302;2022-10-15T00:52:56;15.70;99.90
35563;DHT22;21665;40.108;18.302;2022-10-15T00:55:30;15.70;99.90
35563;DHT22;21665;40.108;18.302;2022-10-15T00:58:25;15.70;99.90
35563;DHT22;21665;40.108;18.302;2022-10-15T01:01:09;15.70;99.90
35563;DHT22;21665;40.108;18.302;2022-10-15T01:03:36;15.60;99.90
35563;DHT22;21665;40.108;18.302;2022-10-15T01:06:04;15.60;99.90
35563;DHT22;21665;40.108;18.302;2022-10-15T01:08:33;15.60;99.90
35563;DHT22;21665;40.108;18.302;2022-10-15T01:11:16;15.60;99.90
35563;DHT22;21665;40.108;18.302;2022-10-15T01:16:44;15.50;99.90
35563;DHT22;21665;40.108;18.302;2022-10-15T01:25:47;15.40;99.90
35563;DHT22;21665;40.108;18.302;2022-10-15T01:31:21;15.40;99.90
35563;DHT22;21665;40.108;18.302;2022-10-15T01:34:42;15.40;99.90
35563;DHT22;21665;40.108;18.302;2022-10-15T01:37:08;15.30;99.90
35563;DHT22;21665;40.108;18.302;2022-10-15T01:40:20;15.30;99.90
35563;DHT22;21665;40.108;18.302;2022-10-15T01:42:56;15.30;99.90
35563;DHT22;21665;40.108;18.302;2022-10-15T01:48:15;15.20;99.90
35563;DHT22;21665;40.108;18.302;2022-10-15T01:50:49;15.20;99.90
35563;DHT22;21665;40.108;18.302;2022-10-15T01:53:20;15.20;99.90
35563;DHT22;21665;40.108;18.302;2022-10-15T01:56:08;15.10;99.90
35563;DHT22;21665;40.108;18.302;2022-10-15T01:58:42;15.10;99.90
35563;DHT22;21665;40.108;18.302;2022-10-15T02:01:09;15.10;99.90
35563;DHT22;21665;40.108;18.302;2022-10-15T02:03:51;15.00;99.90
35563;DHT22;21665;40.108;18.302;2022-10-15T02:17:09;15.00;99.90
35563;DHT22;21665;40.108;18.302;2022-10-15T02:22:17;15.00;99.90
35563;DHT22;21665;40.108;18.302;2022-10-15T02:24:55;14.90;99.90
35563;DHT22;21665;40.108;18.302;2022-10-15T02:27:26;14.90;99.90
35563;DHT22;21665;40.108;18.302;2022-10-15T02:29:55;14.90;99.90
35563;DHT22;21665;40.108;18.302;2022-10-15T02:32:25;14.80;99.90
35563;DHT22;21665;40.108;18.302;2022-10-15T02:34:54;14.80;99.90
35563;DHT22;21665;40.108;18.302;2022-10-15T02:37:41;14.70;99.90
35563;DHT22;21665;40.108;18.302;2022-10-15T02:40:09;14.80;99.90
35563;DHT22;21665;40.108;18.302;2022-10-15T02:42:36;14.80;99.90
35563;DHT22;21665;40.108;18.302;2022-10-15T02:45:08;14.90;99.90
35563;DHT22;21665;40.108;18.302;2022-10-15T02:47:35;14.90;99.90
35563;DHT22;21665;40.108;18.302;2022-10-15T02:50:04;14.90;99.90
35563;DHT22;21665;40.108;18.302;2022-10-15T02:52:31;14.90;99.90
35563;DHT22;21665;40.108;18.302;2022-10-15T02:54:59;14.90;99.90
35563;DHT22;21665;40.108;18.302;2022-10-15T02:57:25;14.80;99.90
35563;DHT22;21665;40.108;18.302;2022-10-15T02:59:52;14.80;99.90
35563;DHT22;21665;40.108;18.302;2022-10-15T03:02:19;14.80;99.90
35563;DHT22;21665;40.108;18.302;2022-10-15T03:04:47;14.80;99.90
35563;DHT22;21665;40.108;18.302;2022-10-15T03:07:17;14.80;99.90
35563;DHT22;21665;40.108;18.302;2022-10-15T03:09:44;14.80;99.90
35563;DHT22;21665;40.108;18.302;2022-10-15T03:12:52;14.70;99.90
35563;DHT22;21665;40.108;18.302;2022-10-15T03:15:19;14.70;99.90
35563;DHT22;21665;40.108;18.302;2022-10-15T03:17:48;14.70;99.90
35563;DHT22;21665;40.108;18.302;2022-10-15T03:20:17;14.70;99.90
35563;DHT22;21665;40.108;18.302;2022-10-15T03:22:44;14.80;99.90
35563;DHT22;21665;40.108;18.302;2022-10-15T03:25:11;14.80;99.90
35563;DHT22;21665;40.108;18.302;2022-10-15T03:27:58;14.80;99.90
35563;DHT22;21665;40.108;18.302;2022-10-15T03:30:39;14.90;99.90
35563;DHT22;21665;40.108;18.302;2022-10-15T03:33:07;14.90;99.90
35563;DHT22;21665;40.108;18.302;2022-10-15T03:35:34;14.90;99.90
35563;DHT22;21665;40.108;18.302;2022-10-15T03:38:12;15.00;99.90
35563;DHT22;21665;40.108;18.302;2022-10-15T03:40:39;14.90;99.90
35563;DHT22;21665;40.108;18.302;2022-10-15T03:43:29;14.90;99.90
35563;DHT22;21665;40.108;18.302;2022-10-15T03:46:04;14.90;99.90
35563;DHT22;21665;40.108;18.302;2022-10-15T03:48:34;14.90;99.90
35563;DHT22;21665;40.108;18.302;2022-10-15T03:51:01;14.90;99.90
35563;DHT22;21665;40.108;18.302;2022-10-15T03:53:28;14.90;99.90
35563;DHT22;21665;40.108;18.302;2022-10-15T03:56:05;14.90;99.90
35563;DHT22;21665;40.108;18.302;2022-10-15T03:58:35;14.80;99.90
35563;DHT22;21665;40.108;18.302;2022-10-15T04:01:34;14.80;99.90
35563;DHT22;21665;40.108;18.302;2022-10-15T04:04:09;14.80;99.90
35563;DHT22;21665;40.108;18.302;2022-10-15T04:09:47;14.90;99.90
35563;DHT22;21665;40.108;18.302;2022-10-15T04:12:39;14.90;99.90
35563;DHT22;21665;40.108;18.302;2022-10-15T04:15:16;14.90;99.90
35563;DHT22;21665;40.108;18.302;2022-10-15T04:18:04;14.80;99.90
35563;DHT22;21665;40.108;18.302;2022-10-15T04:20:53;14.80;99.90
35563;DHT22;21665;40.108;18.302;2022-10-15T04:23:54;14.80;99.90
35563;DHT22;21665;40.108;18.302;2022-10-15T04:26:38;14.80;99.90
35563;DHT22;21665;40.108;18.302;2022-10-15T04:29:21;14.80;99.90
35563;DHT22;21665;40.108;18.302;2022-10-15T04:31:52;14.70;99.90
35563;DHT22;21665;40.108;18.302;2022-10-15T04:34:30;14.70;99.90
35563;DHT22;21665;40.108;18.302;2022-10-15T04:36:57;14.60;99.90
35563;DHT22;21665;40.108;18.302;2022-10-15T04:39:30;14.70;99.90
35563;DHT22;21665;40.108;18.302;2022-10-15T04:41:57;14.60;99.90
35563;DHT22;21665;40.108;18.302;2022-10-15T04:44:31;14.60;99.90
35563;DHT22;21665;40.108;18.302;2022-10-15T04:46:58;14.60;99.90
35563;DHT22;21665;40.108;18.302;2022-10-15T04:49:54;14.60;99.90
35563;DHT22;21665;40.108;18.302;2022-10-15T04:52:41;14.60;99.90
35563;DHT22;21665;40.108;18.302;2022-10-15T04:55:11;14.60;99.90
35563;DHT22;21665;40.108;18.302;2022-10-15T04:57:38;14.60;99.90
35563;DHT22;21665;40.108;18.302;2022-10-15T05:00:06;14.60;99.90
35563;DHT22;21665;40.108;18.302;2022-10-15T05:05:51;14.50;99.90
35563;DHT22;21665;40.108;18.302;2022-10-15T05:08:18;14.40;99.90
35563;DHT22;21665;40.108;18.302;2022-10-15T05:11:05;14.40;99.90
35563;DHT22;21665;40.108;18.302;2022-10-15T05:13:36;14.40;99.90
35563;DHT22;21665;40.108;18.302;2022-10-15T05:16:22;14.50;99.90
35563;DHT22;21665;40.108;18.302;2022-10-15T05:18:53;14.50;99.90
35563;DHT22;21665;40.108;18.302;2022-10-15T05:21:30;14.60;99.90
35563;DHT22;21665;40.108;18.302;2022-10-15T05:24:16;14.60;99.90
35563;DHT22;21665;40.108;18.302;2022-10-15T05:27:00;14.60;99.90
35563;DHT22;21665;40.108;18.302;2022-10-15T05:29:31;14.60;99.90
35563;DHT22;21665;40.108;18.302;2022-10-15T05:32:09;14.60;99.90
35563;DHT22;21665;40.108;18.302;2022-10-15T05:34:35;14.70;99.90
35563;DHT22;21665;40.108;18.302;2022-10-15T05:37:10;14.70;99.90
35563;DHT22;21665;40.108;18.302;2022-10-15T05:39:40;14.70;99.90
35563;DHT22;21665;40.108;18.302;2022-10-15T05:42:15;14.80;99.90
35563;DHT22;21665;40.108;18.302;2022-10-15T05:44:59;15.10;99.90
35563;DHT22;21665;40.108;18.302;2022-10-15T05:47:33;15.70;99.90
35563;DHT22;21665;40.108;18.302;2022-10-15T05:50:16;16.50;99.90
35563;DHT22;21665;40.108;18.302;2022-10-15T05:52:59;17.30;99.90
35563;DHT22;21665;40.108;18.302;2022-10-15T05:55:48;17.90;99.90
35563;DHT22;21665;40.108;18.302;2022-10-15T05:58:19;18.20;99.90
35563;DHT22;21665;40.108;18.302;2022-10-15T06:01:43;18.50;99.90
35563;DHT22;21665;40.108;18.302;2022-10-15T06:07:23;19.20;99.90
35563;DHT22;21665;40.108;18.302;2022-10-15T06:10:00;19.20;99.90
35563;DHT22;21665;40.108;18.302;2022-10-15T06:12:39;19.20;99.90
35563;DHT22;21665;40.108;18.302;2022-10-15T06:15:34;19.30;99.90
35563;DHT22;21665;40.108;18.302;2022-10-15T06:18:01;19.60;99.90
35563;DHT22;21665;40.108;18.302;2022-10-15T06:34:59;20.30;99.90
35563;DHT22;21665;40.108;18.302;2022-10-15T15:36:22;19.00;99.90
35563;DHT22;21665;40.108;18.302;2022-10-15T15:38:49;18.90;99.90
35563;DHT22;21665;40.108;18.302;2022-10-15T15:41:18;18.80;99.90
35563;DHT22;21665;40.108;18.302;2022-10-15T15:43:49;18.80;99.90
35563;DHT22;21665;40.108;18.302;2022-10-15T15:46:16;18.70;99.90
35563;DHT22;21665;40.108;18.302;2022-10-15T15:57:25;18.50;99.90
35563;DHT22;21665;40.108;18.302;2022-10-15T15:59:53;18.40;99.90
35563;DHT22;21665;40.108;18.302;2022-10-15T16:02:20;18.40;99.90
35563;DHT22;21665;40.108;18.302;2022-10-15T16:07:30;18.30;99.90
35563;DHT22;21665;40.108;18.302;2022-10-15T16:10:00;18.20;99.90
35563;DHT22;21665;40.108;18.302;2022-10-15T16:15:53;18.20;99.90
35563;DHT22;21665;40.108;18.302;2022-10-15T16:27:33;18.00;99.90
35563;DHT22;21665;40.108;18.302;2022-10-15T16:30:03;18.00;99.90
35563;DHT22;21665;40.108;18.302;2022-10-15T16:32:33;18.00;99.90
35563;DHT22;21665;40.108;18.302;2022-10-15T16:35:01;18.00;99.90
35563;DHT22;21665;40.108;18.302;2022-10-15T16:37:31;17.90;99.90
35563;DHT22;21665;40.108;18.302;2022-10-15T16:39:57;17.90;99.90
35563;DHT22;21665;40.108;18.302;2022-10-15T16:42:28;17.80;99.90
35563;DHT22;21665;40.108;18.302;2022-10-15T16:45:04;17.80;99.90
35563;DHT22;21665;40.108;18.302;2022-10-15T16:47:31;17.70;99.90
35563;DHT22;21665;40.108;18.302;2022-10-15T16:50:01;17.70;99.90
35563;DHT22;21665;40.108;18.302;2022-10-15T16:52:33;17.70;99.90
35563;DHT22;21665;40.108;18.302;2022-10-15T16:55:00;17.60;99.90
35563;DHT22;21665;40.108;18.302;2022-10-15T16:57:27;17.60;99.90
35563;DHT22;21665;40.108;18.302;2022-10-15T16:59:53;17.60;99.90
35563;DHT22;21665;40.108;18.302;2022-10-15T17:02:21;17.50;99.90
35563;DHT22;21665;40.108;18.302;2022-10-15T17:04:50;17.50;99.90
35563;DHT22;21665;40.108;18.302;2022-10-15T17:07:21;17.40;99.90
35563;DHT22;21665;40.108;18.302;2022-10-15T17:09:54;17.40;99.90
35563;DHT22;21665;40.108;18.302;2022-10-15T17:12:25;17.40;99.90
35563;DHT22;21665;40.108;18.302;2022-10-15T17:15:01;17.30;99.90
35563;DHT22;21665;40.108;18.302;2022-10-15T17:17:28;17.30;99.90
35563;DHT22;21665;40.108;18.302;2022-10-15T17:20:01;17.30;99.90
35563;DHT22;21665;40.108;18.302;2022-10-15T17:22:33;17.20;99.90
35563;DHT22;21665;40.108;18.302;2022-10-15T17:25:08;17.20;99.90
35563;DHT22;21665;40.108;18.302;2022-10-15T17:27:41;17.20;99.90
35563;DHT22;21665;40.108;18.302;2022-10-15T17:30:08;17.20;99.90
35563;DHT22;21665;40.108;18.302;2022-10-15T17:32:35;17.10;99.90
35563;DHT22;21665;40.108;18.302;2022-10-15T17:35:11;17.10;99.90
35563;DHT22;21665;40.108;18.302;2022-10-15T17:37:38;17.10;99.90
35563;DHT22;21665;40.108;18.302;2022-10-15T17:40:05;17.00;99.90
35563;DHT22;21665;40.108;18.302;2022-10-15T17:42:35;17.00;99.90
35563;DHT22;21665;40.108;18.302;2022-10-15T17:45:10;16.90;99.90
35563;DHT22;21665;40.108;18.302;2022-10-15T17:47:37;16.90;99.90
35563;DHT22;21665;40.108;18.302;2022-10-15T17:50:10;16.90;99.90
35563;DHT22;21665;40.108;18.302;2022-10-15T17:52:41;16.90;99.90
35563;DHT22;21665;40.108;18.302;2022-10-15T17:55:08;16.80;99.90
35563;DHT22;21665;40.108;18.302;2022-10-15T17:57:41;16.80;99.90
35563;DHT22;21665;40.108;18.302;2022-10-15T18:00:08;16.80;99.90
35563;DHT22;21665;40.108;18.302;2022-10-15T18:03:00;16.80;99.90
35563;DHT22;21665;40.108;18.302;2022-10-15T18:05:27;16.70;99.90
35563;DHT22;21665;40.108;18.302;2022-10-15T18:07:53;16.70;99.90
35563;DHT22;21665;40.108;18.302;2022-10-15T18:10:23;16.70;99.90
35563;DHT22;21665;40.108;18.302;2022-10-15T18:12:53;16.60;99.90
35563;DHT22;21665;40.108;18.302;2022-10-15T18:15:19;16.60;99.90
35563;DHT22;21665;40.108;18.302;2022-10-15T18:17:48;16.60;99.90
35563;DHT22;21665;40.108;18.302;2022-10-15T18:20:15;16.50;99.90
35563;DHT22;21665;40.108;18.302;2022-10-15T18:22:45;16.50;99.90
35563;DHT22;21665;40.108;18.302;2022-10-15T18:25:11;16.50;99.90
35563;DHT22;21665;40.108;18.302;2022-10-15T18:27:38;16.50;99.90
35563;DHT22;21665;40.108;18.302;2022-10-15T18:30:05;16.50;99.90
35563;DHT22;21665;40.108;18.302;2022-10-15T18:32:32;16.40;99.90
35563;DHT22;21665;40.108;18.302;2022-10-15T18:35:08;16.40;99.90
35563;DHT22;21665;40.108;18.302;2022-10-15T18:37:35;16.40;99.90
35563;DHT22;21665;40.108;18.302;2022-10-15T18:40:08;16.40;99.90
35563;DHT22;21665;40.108;18.302;2022-10-15T18:42:42;16.40;99.90
35563;DHT22;21665;40.108;18.302;2022-10-15T18:45:37;16.50;99.90
35563;DHT22;21665;40.108;18.302;2022-10-15T18:48:42;16.40;99.90
35563;DHT22;21665;40.108;18.302;2022-10-15T18:51:32;16.30;99.90
35563;DHT22;21665;40.108;18.302;2022-10-15T18:54:12;16.20;99.90
35563;DHT22;21665;40.108;18.302;2022-10-15T18:57:03;16.10;99.90
35563;DHT22;21665;40.108;18.302;2022-10-15T19:00:13;16.10;99.90
35563;DHT22;21665;40.108;18.302;2022-10-15T19:03:09;16.00;99.90
35563;DHT22;21665;40.108;18.302;2022-10-15T19:05:46;16.00;99.90
35563;DHT22;21665;40.108;18.302;2022-10-15T19:08:26;16.00;99.90
35563;DHT22;21665;40.108;18.302;2022-10-15T19:11:06;15.90;99.90
35563;DHT22;21665;40.108;18.302;2022-10-15T19:13:35;16.00;99.90
35563;DHT22;21665;40.108;18.302;2022-10-15T19:16:05;16.00;99.90
35563;DHT22;21665;40.108;18.302;2022-10-15T19:18:49;16.00;99.90
35563;DHT22;21665;40.108;18.302;2022-10-15T19:21:19;16.00;99.90
35563;DHT22;21665;40.108;18.302;2022-10-15T19:26:57;15.80;99.90
35563;DHT22;21665;40.108;18.302;2022-10-15T19:29:24;15.90;99.90
35563;DHT22;21665;40.108;18.302;2022-10-15T19:31:51;16.00;99.90
35563;DHT22;21665;40.108;18.302;2022-10-15T19:34:19;16.00;99.90
35563;DHT22;21665;40.108;18.302;2022-10-15T19:36:51;16.00;99.90
35563;DHT22;21665;40.108;18.302;2022-10-15T19:39:40;15.90;99.90
35563;DHT22;21665;40.108;18.302;2022-10-15T19:42:13;15.90;99.90
35563;DHT22;21665;40.108;18.302;2022-10-15T19:44:43;15.80;99.90
35563;DHT22;21665;40.108;18.302;2022-10-15T19:47:09;15.80;99.90
35563;DHT22;21665;40.108;18.302;2022-10-15T19:49:36;15.70;99.90
35563;DHT22;21665;40.108;18.302;2022-10-15T19:52:03;15.80;99.90
35563;DHT22;21665;40.108;18.302;2022-10-15T19:54:30;15.70;99.90
35563;DHT22;21665;40.108;18.302;2022-10-15T19:57:11;15.70;99.90
35563;DHT22;21665;40.108;18.302;2022-10-15T19:59:39;15.70;99.90
35563;DHT22;21665;40.108;18.302;2022-10-15T20:02:11;15.70;99.90
35563;DHT22;21665;40.108;18.302;2022-10-15T20:04:38;15.70;99.90
35563;DHT22;21665;40.108;18.302;2022-10-15T20:07:07;15.70;99.90
35563;DHT22;21665;40.108;18.302;2022-10-15T20:09:49;15.60;99.90
35563;DHT22;21665;40.108;18.302;2022-10-15T20:12:22;15.60;99.90
35563;DHT22;21665;40.108;18.302;2022-10-15T20:15:01;15.50;99.90
35563;DHT22;21665;40.108;18.302;2022-10-15T20:17:38;15.40;99.90
35563;DHT22;21665;40.108;18.302;2022-10-15T20:20:13;15.30;99.90
35563;DHT22;21665;40.108;18.302;2022-10-15T20:22:42;15.30;99.90
35563;DHT22;21665;40.108;18.302;2022-10-15T20:25:09;15.30;99.90
35563;DHT22;21665;40.108;18.302;2022-10-15T20:27:41;15.30;99.90
35563;DHT22;21665;40.108;18.302;2022-10-15T20:30:09;15.40;99.90
35563;DHT22;21665;40.108;18.302;2022-10-15T20:40:23;15.20;99.90
35563;DHT22;21665;40.108;18.302;2022-10-15T20:43:13;15.10;99.90
35563;DHT22;21665;40.108;18.302;2022-10-15T20:45:44;15.00;99.90
35563;DHT22;21665;40.108;18.302;2022-10-15T20:48:19;15.00;99.90
35563;DHT22;21665;40.108;18.302;2022-10-15T20:50:56;15.00;99.90
35563;DHT22;21665;40.108;18.302;2022-10-15T20:53:25;15.00;99.90
35563;DHT22;21665;40.108;18.302;2022-10-15T20:55:52;15.00;99.90
35563;DHT22;21665;40.108;18.302;2022-10-15T20:58:21;14.90;99.90
35563;DHT22;21665;40.108;18.302;2022-10-15T21:00:47;14.90;99.90
35563;DHT22;21665;40.108;18.302;2022-10-15T21:03:17;15.00;99.90
35563;DHT22;21665;40.108;18.302;2022-10-15T21:05:43;15.00;99.90
35563;DHT22;21665;40.108;18.302;2022-10-15T21:08:22;15.10;99.90
35563;DHT22;21665;40.108;18.302;2022-10-15T21:10:49;15.20;99.90
35563;DHT22;21665;40.108;18.302;2022-10-15T21:13:16;15.20;99.90
35563;DHT22;21665;40.108;18.302;2022-10-15T21:15:42;15.20;99.90
35563;DHT22;21665;40.108;18.302;2022-10-15T21:18:09;15.30;99.90
35563;DHT22;21665;40.108;18.302;2022-10-15T21:20:36;15.20;99.90
35563;DHT22;21665;40.108;18.302;2022-10-15T21:23:11;15.20;99.90
35563;DHT22;21665;40.108;18.302;2022-10-15T21:25:39;15.10;99.90
35563;DHT22;21665;40.108;18.302;2022-10-15T21:28:09;15.10;99.90
35563;DHT22;21665;40.108;18.302;2022-10-15T21:30:39;15.00;99.90
35563;DHT22;21665;40.108;18.302;2022-10-15T21:33:06;14.90;99.90
35563;DHT22;21665;40.108;18.302;2022-10-15T21:35:32;14.80;99.90
35563;DHT22;21665;40.108;18.302;2022-10-15T21:37:59;14.70;99.90
35563;DHT22;21665;40.108;18.302;2022-10-15T21:40:26;14.60;99.90
35563;DHT22;21665;40.108;18.302;2022-10-15T21:42:54;14.50;99.90
35563;DHT22;21665;40.108;18.302;2022-10-15T21:45:22;14.40;99.90
35563;DHT22;21665;40.108;18.302;2022-10-15T21:47:48;14.30;99.90
35563;DHT22;21665;40.108;18.302;2022-10-15T21:50:15;14.30;99.90
35563;DHT22;21665;40.108;18.302;2022-10-15T21:52:41;14.30;99.90
35563;DHT22;21665;40.108;18.302;2022-10-15T21:55:11;14.30;99.90
35563;DHT22;21665;40.108;18.302;2022-10-15T21:57:38;14.30;99.90
35563;DHT22;21665;40.108;18.302;2022-10-15T22:00:11;14.30;99.90
35563;DHT22;21665;40.108;18.302;2022-10-15T22:02:42;14.30;99.90
35563;DHT22;21665;40.108;18.302;2022-10-15T22:05:08;14.30;99.90
35563;DHT22;21665;40.108;18.302;2022-10-15T22:07:35;14.30;99.90
35563;DHT22;21665;40.108;18.302;2022-10-15T22:10:01;14.30;99.90
35563;DHT22;21665;40.108;18.302;2022-10-15T22:12:28;14.30;99.90
35563;DHT22;21665;40.108;18.302;2022-10-15T22:14:55;14.30;99.90
35563;DHT22;21665;40.108;18.302;2022-10-15T22:17:21;14.30;99.90
35563;DHT22;21665;40.108;18.302;2022-10-15T22:19:49;14.30;99.90
35563;DHT22;21665;40.108;18.302;2022-10-15T22:22:16;14.30;99.90
35563;DHT22;21665;40.108;18.302;2022-10-15T22:24:43;14.30;99.90
35563;DHT22;21665;40.108;18.302;2022-10-15T22:27:10;14.30;99.90
35563;DHT22;21665;40.108;18.302;2022-10-15T22:29:38;14.30;99.90
35563;DHT22;21665;40.108;18.302;2022-10-15T22:32:05;14.30;99.90
35563;DHT22;21665;40.108;18.302;2022-10-15T22:34:31;14.30;99.90
35563;DHT22;21665;40.108;18.302;2022-10-15T22:36:58;14.30;99.90
35563;DHT22;21665;40.108;18.302;2022-10-15T22:39:24;14.30;99.90
35563;DHT22;21665;40.108;18.302;2022-10-15T22:41:53;14.30;99.90
35563;DHT22;21665;40.108;18.302;2022-10-15T22:44:22;14.30;99.90
35563;DHT22;21665;40.108;18.302;2022-10-15T22:46:55;14.30;99.90
35563;DHT22;21665;40.108;18.302;2022-10-15T22:49:21;14.20;99.90
35563;DHT22;21665;40.108;18.302;2022-10-15T22:51:49;14.20;99.90
35563;DHT22;21665;40.108;18.302;2022-10-15T22:54:17;14.20;99.90
35563;DHT22;21665;40.108;18.302;2022-10-15T22:56:44;14.20;99.90
35563;DHT22;21665;40.108;18.302;2022-10-15T22:59:12;14.30;99.90
35563;DHT22;21665;40.108;18.302;2022-10-15T23:01:39;14.30;99.90
35563;DHT22;21665;40.108;18.302;2022-10-15T23:04:06;14.30;99.90
35563;DHT22;21665;40.108;18.302;2022-10-15T23:06:35;14.30;99.90
35563;DHT22;21665;40.108;18.302;2022-10-15T23:09:04;14.30;99.90
35563;DHT22;21665;40.108;18.302;2022-10-15T23:11:49;14.30;99.90
35563;DHT22;21665;40.108;18.302;2022-10-15T23:14:15;14.30;99.90
35563;DHT22;21665;40.108;18.302;2022-10-15T23:16:44;14.20;99.90
35563;DHT22;21665;40.108;18.302;2022-10-15T23:19:16;14.20;99.90
35563;DHT22;21665;40.108;18.302;2022-10-15T23:21:52;14.20;99.90
35563;DHT22;21665;40.108;18.302;2022-10-15T23:24:23;14.10;99.90
35563;DHT22;21665;40.108;18.302;2022-10-15T23:26:52;14.10;99.90
35563;DHT22;21665;40.108;18.302;2022-10-15T23:29:21;14.10;99.90
35563;DHT22;21665;40.108;18.302;2022-10-15T23:31:49;14.00;99.90
35563;DHT22;21665;40.108;18.302;2022-10-15T23:34:19;14.00;99.90
35563;DHT22;21665;40.108;18.302;2022-10-15T23:36:48;14.00;99.90
35563;DHT22;21665;40.108;18.302;2022-10-15T23:39:20;14.00;99.90
35563;DHT22;21665;40.108;18.302;2022-10-15T23:41:49;14.00;99.90
35563;DHT22;21665;40.108;18.302;2022-10-15T23:44:19;14.00;99.90
35563;DHT22;21665;40.108;18.302;2022-10-15T23:46:46;14.00;99.90
35563;DHT22;21665;40.108;18.302;2022-10-15T23:49:13;14.00;99.90
35563;DHT22;21665;40.108;18.302;2022-10-15T23:51:43;13.90;99.90
35563;DHT22;21665;40.108;18.302;2022-10-15T23:54:15;13.90;99.90
35563;DHT22;21665;40.108;18.302;2022-10-15T23:56:44;13.80;99.90
35563;DHT22;21665;40.108;18.302;2022-10-15T23:59:12;13.80;99.90
